Terminal Aerodrome Forecast
Issued by NWS Milwaukee/Sullivan, WI

Home | Current Version | Previous Version | Text Only | Print | Product List | Glossary On
Versions: 1 2 3 4 5 6 7 8 9 10 11 12 13 14 15 16 17 18 19 20 21 22 23 24 25 26
000
FTUS43 KMKX 210520
TAFMSN
TAF
KMSN 210520Z 2106/2206 VRB03KT P6SM VCSH BKN070
     FM210900 21003KT 4SM -SHRA BR SCT035 OVC060
     FM211400 24006KT 4SM -RA BR SCT015 OVC050
     FM211900 26008KT 6SM -SHRA OVC025
     FM212000 30008KT P6SM OVC035
     FM220200 35006KT P6SM SCT040=

USA.gov is the U.S. government's official web portal to all federal, state and local government web resources and services.